Time;durP1;ratioP1;P1;durP2;ratioP2;P2;SDS_P1;SDS_P2;PMS_P1;PMS_P2;Temp;Humidity;BMP_temperature;BMP_pressure;BME280_temperature;BME280_humidity;BME280_pressure;Samples;Min_cycle;Max_cycle;Signal;HPM_P1;HPM_P2
2021/08/29 00:00:09;;;;;;;2.28;1.02;;;13.60;99.90;;;;;;5129719;27;20035;-76
2021/08/29 00:02:35;;;;;;;3.63;1.17;;;13.50;99.90;;;;;;5115401;27;20548;-76
2021/08/29 00:05:01;;;;;;;1.80;0.85;;;13.50;99.90;;;;;;5131058;27;20129;-76
2021/08/29 00:07:27;;;;;;;2.05;0.93;;;13.50;99.90;;;;;;5130606;27;20034;-76
2021/08/29 00:09:53;;;;;;;1.73;0.80;;;13.50;99.90;;;;;;5129765;27;20540;-76
2021/08/29 00:12:18;;;;;;;3.92;0.90;;;13.30;99.90;;;;;;5129461;27;20035;-76
2021/08/29 00:14:44;;;;;;;2.72;0.80;;;13.30;99.90;;;;;;5130554;27;20763;-76
2021/08/29 00:17:10;;;;;;;2.45;0.70;;;13.20;99.90;;;;;;5130150;27;20027;-76
2021/08/29 00:19:36;;;;;;;2.40;0.88;;;13.20;99.90;;;;;;5110868;28;20039;-76
2021/08/29 00:22:01;;;;;;;2.03;1.02;;;13.20;99.90;;;;;;5113138;27;20421;-76
2021/08/29 00:24:27;;;;;;;2.28;0.80;;;13.20;99.90;;;;;;5112638;28;20031;-76
2021/08/29 00:26:53;;;;;;;2.53;0.70;;;13.20;99.90;;;;;;5129983;27;20059;-76
2021/08/29 00:29:18;;;;;;;2.72;1.15;;;13.20;99.90;;;;;;5132073;27;20492;-76
2021/08/29 00:31:44;;;;;;;5.32;1.58;;;13.20;99.90;;;;;;5098293;28;20019;-76
2021/08/29 00:34:10;;;;;;;3.42;0.98;;;13.20;99.90;;;;;;5113008;27;20423;-76
2021/08/29 00:36:36;;;;;;;1.88;0.75;;;13.30;99.90;;;;;;5125148;27;20028;-77
2021/08/29 00:39:02;;;;;;;3.03;0.95;;;13.10;99.90;;;;;;5131531;27;20031;-76
2021/08/29 00:41:28;;;;;;;3.30;1.10;;;13.00;99.90;;;;;;5126394;27;20113;-76
2021/08/29 00:43:55;;;;;;;2.15;0.82;;;13.10;99.90;;;;;;5120302;27;20107;-76
2021/08/29 00:46:21;;;;;;;2.35;0.80;;;13.00;99.90;;;;;;5132355;27;20027;-76
2021/08/29 00:48:51;;;;;;;3.05;0.93;;;12.90;99.90;;;;;;5129827;27;20027;-76
2021/08/29 00:51:17;;;;;;;2.35;1.02;;;13.00;99.90;;;;;;5120580;27;20031;-76
2021/08/29 00:53:50;;;;;;;2.05;0.80;;;12.80;99.90;;;;;;5112066;28;20035;-77
2021/08/29 00:56:20;;;;;;;2.63;0.60;;;12.80;99.90;;;;;;5125511;27;20019;-76
2021/08/29 00:58:48;;;;;;;1.25;0.47;;;12.80;99.90;;;;;;5131877;27;20493;-76
2021/08/29 01:01:37;;;;;;;2.08;0.70;;;12.90;99.90;;;;;;5123208;27;20027;-76
2021/08/29 01:04:06;;;;;;;2.03;0.77;;;12.90;99.90;;;;;;5102186;27;20676;-76
2021/08/29 01:07:06;;;;;;;1.35;0.70;;;12.80;99.90;;;;;;5129728;27;20096;-77
2021/08/29 01:09:36;;;;;;;2.10;0.80;;;12.80;99.90;;;;;;5121366;27;20093;-76
2021/08/29 01:12:03;;;;;;;1.88;0.82;;;12.70;99.90;;;;;;5112647;28;20023;-76
2021/08/29 01:14:31;;;;;;;1.30;0.68;;;12.70;99.90;;;;;;5110275;28;20500;-77
2021/08/29 01:16:59;;;;;;;1.52;0.63;;;12.60;99.90;;;;;;5112037;28;20120;-76
2021/08/29 01:19:37;;;;;;;1.60;0.73;;;12.60;99.90;;;;;;5130235;28;20587;-76
2021/08/29 01:22:04;;;;;;;1.05;0.52;;;12.60;99.90;;;;;;5116031;28;20071;-76
2021/08/29 01:24:31;;;;;;;3.25;0.77;;;12.50;99.90;;;;;;5112237;28;20020;-76
2021/08/29 01:27:10;;;;;;;2.83;0.93;;;12.70;99.90;;;;;;5129369;28;20027;-76
2021/08/29 01:29:36;;;;;;;2.55;0.90;;;12.70;99.90;;;;;;5111895;28;20156;-76
2021/08/29 01:32:05;;;;;;;1.25;0.68;;;12.60;99.90;;;;;;5131588;28;20062;-76
2021/08/29 01:34:32;;;;;;;1.55;0.65;;;12.60;99.90;;;;;;5130766;28;20106;-76
2021/08/29 01:37:00;;;;;;;1.88;0.80;;;12.60;99.90;;;;;;5130010;28;20035;-76
2021/08/29 01:39:25;;;;;;;2.15;0.80;;;12.50;99.90;;;;;;5112721;28;20043;-76
2021/08/29 01:41:52;;;;;;;3.70;0.80;;;12.50;99.90;;;;;;5127904;27;20117;-77
2021/08/29 01:44:21;;;;;;;2.05;1.08;;;12.60;99.90;;;;;;5129646;27;20038;-76
2021/08/29 01:46:47;;;;;;;2.33;0.75;;;12.40;99.90;;;;;;5105617;28;20097;-76
2021/08/29 01:49:13;;;;;;;1.23;0.70;;;12.50;99.90;;;;;;5120851;27;20027;-76
2021/08/29 01:51:40;;;;;;;2.10;0.95;;;12.40;99.90;;;;;;5115225;27;20049;-76
2021/08/29 01:54:07;;;;;;;2.28;1.15;;;12.50;99.90;;;;;;5121084;27;20039;-76
2021/08/29 01:56:56;;;;;;;2.58;1.00;;;12.40;99.90;;;;;;5133604;27;20083;-78
2021/08/29 01:59:21;;;;;;;3.15;1.33;;;12.30;99.90;;;;;;5112816;27;20028;-76
2021/08/29 02:01:47;;;;;;;1.83;0.70;;;12.40;99.90;;;;;;5133234;27;20038;-76
2021/08/29 02:04:13;;;;;;;5.88;1.20;;;12.40;99.90;;;;;;5131592;27;20366;-76
2021/08/29 02:06:46;;;;;;;1.52;0.80;;;12.50;99.90;;;;;;5133508;27;20393;-77
2021/08/29 02:09:12;;;;;;;2.72;0.90;;;12.50;99.90;;;;;;5121726;27;20047;-76
2021/08/29 02:11:46;;;;;;;2.38;1.17;;;12.60;99.90;;;;;;5129011;27;20027;-76
2021/08/29 02:14:20;;;;;;;2.28;0.80;;;12.70;99.90;;;;;;5128177;27;20023;-77
2021/08/29 02:16:48;;;;;;;2.45;1.00;;;12.80;99.90;;;;;;5116194;28;20032;-77
2021/08/29 02:19:16;;;;;;;2.38;0.82;;;12.70;99.90;;;;;;5133423;27;20027;-76
2021/08/29 02:21:41;;;;;;;3.25;1.02;;;12.50;99.90;;;;;;5134681;27;20027;-76
2021/08/29 02:24:08;;;;;;;3.15;0.82;;;12.50;99.90;;;;;;5134087;27;20030;-76
2021/08/29 02:26:33;;;;;;;2.88;0.90;;;12.50;99.90;;;;;;5130896;27;20023;-76
2021/08/29 02:29:00;;;;;;;3.72;0.98;;;12.50;99.90;;;;;;5115628;27;20111;-76
2021/08/29 02:31:25;;;;;;;1.90;0.95;;;12.40;99.90;;;;;;5116278;27;20101;-76
2021/08/29 02:33:51;;;;;;;2.03;1.00;;;12.30;99.90;;;;;;5124761;27;20027;-76
2021/08/29 02:36:19;;;;;;;2.22;0.85;;;12.40;99.90;;;;;;5134013;27;20031;-76
2021/08/29 02:38:47;;;;;;;1.90;0.82;;;12.40;99.90;;;;;;5125792;27;20019;-76
2021/08/29 02:41:13;;;;;;;1.27;0.63;;;12.50;99.90;;;;;;5129125;27;20031;-76
2021/08/29 02:43:40;;;;;;;1.63;0.85;;;12.50;99.90;;;;;;5130208;27;20019;-76
2021/08/29 02:46:07;;;;;;;1.33;0.73;;;12.30;99.90;;;;;;5130894;27;20534;-76
2021/08/29 02:48:33;;;;;;;2.20;1.00;;;12.30;99.90;;;;;;5123127;27;20077;-76
2021/08/29 02:50:59;;;;;;;2.55;0.80;;;12.30;99.90;;;;;;5117437;27;20042;-76
2021/08/29 02:53:25;;;;;;;2.33;1.30;;;12.20;99.90;;;;;;5128711;27;20110;-77
2021/08/29 02:55:59;;;;;;;3.03;1.20;;;12.00;99.90;;;;;;5132826;27;20113;-76
2021/08/29 02:58:26;;;;;;;2.37;1.00;;;12.10;99.90;;;;;;5124611;27;20015;-76
2021/08/29 03:00:52;;;;;;;1.85;0.93;;;12.30;99.90;;;;;;5134117;27;20058;-76
2021/08/29 03:03:18;;;;;;;1.70;0.82;;;12.50;99.90;;;;;;5125392;27;20557;-77
2021/08/29 03:05:44;;;;;;;2.90;1.20;;;12.70;99.90;;;;;;5123882;27;20035;-77
2021/08/29 03:08:10;;;;;;;1.75;0.90;;;12.60;99.90;;;;;;5121516;27;20027;-78
2021/08/29 03:10:36;;;;;;;2.50;1.00;;;12.60;99.90;;;;;;5125377;27;20986;-77
2021/08/29 03:13:03;;;;;;;1.42;0.70;;;12.60;99.90;;;;;;5126674;27;20031;-77
2021/08/29 03:15:30;;;;;;;2.42;0.93;;;12.60;99.90;;;;;;5126461;27;20464;-77
2021/08/29 03:17:56;;;;;;;2.65;1.00;;;12.50;99.90;;;;;;5119590;27;20024;-77
2021/08/29 03:20:26;;;;;;;2.38;0.90;;;12.40;99.90;;;;;;5118141;27;20109;-76
2021/08/29 03:22:53;;;;;;;2.28;0.82;;;12.40;99.90;;;;;;5119757;27;20047;-76
2021/08/29 03:25:19;;;;;;;2.28;0.95;;;12.40;99.90;;;;;;5110058;27;20035;-78
2021/08/29 03:27:45;;;;;;;2.13;1.00;;;12.50;99.90;;;;;;5106845;28;20031;-76
2021/08/29 03:30:12;;;;;;;2.15;0.95;;;12.50;99.90;;;;;;5107975;27;20031;-77
2021/08/29 03:32:39;;;;;;;1.98;0.90;;;12.40;99.90;;;;;;5118623;27;20034;-77
2021/08/29 03:35:06;;;;;;;2.00;0.73;;;12.40;99.90;;;;;;5121994;27;20035;-76
2021/08/29 03:37:32;;;;;;;1.60;0.55;;;12.30;99.90;;;;;;5126464;27;20081;-77
2021/08/29 03:40:00;;;;;;;1.20;0.60;;;12.30;99.90;;;;;;5127390;27;20020;-78
2021/08/29 03:42:28;;;;;;;1.58;0.82;;;12.30;99.90;;;;;;5125900;27;20091;-78
2021/08/29 03:44:54;;;;;;;1.65;0.90;;;12.30;99.90;;;;;;5126690;27;20027;-77
2021/08/29 03:47:20;;;;;;;1.83;0.65;;;12.10;99.90;;;;;;5116860;27;20096;-76
2021/08/29 03:49:46;;;;;;;1.50;0.68;;;12.00;99.90;;;;;;5107534;27;20085;-76
2021/08/29 03:52:14;;;;;;;2.28;0.80;;;11.80;99.90;;;;;;5113401;27;20051;-77
2021/08/29 03:54:41;;;;;;;2.42;1.00;;;11.90;99.90;;;;;;5126922;27;20027;-76
2021/08/29 03:57:08;;;;;;;3.97;0.60;;;11.60;99.90;;;;;;5106979;27;20035;-76
2021/08/29 03:59:34;;;;;;;1.58;0.70;;;11.70;99.90;;;;;;5106753;27;20058;-76
2021/08/29 04:02:00;;;;;;;1.85;1.17;;;11.80;99.90;;;;;;5107927;27;20070;-77
2021/08/29 04:04:27;;;;;;;2.20;0.98;;;11.80;99.90;;;;;;5113217;27;20031;-77
2021/08/29 04:06:54;;;;;;;2.42;0.95;;;11.90;99.90;;;;;;5117828;27;20481;-78
2021/08/29 04:09:24;;;;;;;2.17;1.00;;;12.20;99.90;;;;;;5115289;27;21753;-78
2021/08/29 04:11:50;;;;;;;2.33;0.82;;;12.10;99.90;;;;;;5124500;27;20035;-77
2021/08/29 04:14:15;;;;;;;5.13;0.90;;;12.10;99.90;;;;;;5117511;27;20097;-76
2021/08/29 04:16:41;;;;;;;2.55;1.20;;;12.20;99.90;;;;;;5123481;27;20035;-77
2021/08/29 04:19:08;;;;;;;1.67;0.70;;;12.30;99.90;;;;;;5124116;27;20027;-77
2021/08/29 04:21:34;;;;;;;2.38;0.95;;;12.30;99.90;;;;;;5126930;27;20063;-77
2021/08/29 04:24:00;;;;;;;3.55;1.02;;;12.40;99.90;;;;;;5118934;27;20461;-77
2021/08/29 04:26:26;;;;;;;1.38;0.80;;;12.40;99.90;;;;;;5126600;27;20031;-76
2021/08/29 04:28:52;;;;;;;2.28;0.90;;;12.20;99.90;;;;;;5125764;27;20641;-78
2021/08/29 04:31:29;;;;;;;2.08;1.10;;;12.20;99.90;;;;;;5123715;27;20019;-76
2021/08/29 04:33:56;;;;;;;0.98;0.50;;;12.30;99.90;;;;;;5124769;27;20031;-77
2021/08/29 04:36:21;;;;;;;2.60;0.80;;;11.90;99.90;;;;;;5125163;27;20031;-76
2021/08/29 04:38:47;;;;;;;0.88;0.50;;;11.80;99.90;;;;;;5125986;27;20096;-76
2021/08/29 04:41:13;;;;;;;1.60;0.68;;;11.50;99.90;;;;;;5125818;27;20370;-78
2021/08/29 04:43:39;;;;;;;1.17;0.60;;;11.50;99.90;;;;;;5117920;27;20080;-78
2021/08/29 04:46:05;;;;;;;1.38;0.77;;;11.40;99.90;;;;;;5119075;27;20027;-77
2021/08/29 04:48:31;;;;;;;1.40;0.50;;;11.30;99.90;;;;;;5114511;27;20627;-77
2021/08/29 04:50:58;;;;;;;2.20;0.70;;;11.50;99.90;;;;;;5105749;28;20069;-77
2021/08/29 04:53:24;;;;;;;1.40;0.50;;;11.50;99.90;;;;;;5105565;27;20840;-76
2021/08/29 04:55:50;;;;;;;1.27;0.52;;;11.40;99.90;;;;;;5116220;27;20019;-76
2021/08/29 04:58:15;;;;;;;2.20;0.70;;;11.50;99.90;;;;;;5123910;27;20076;-76
2021/08/29 05:00:41;;;;;;;1.55;0.55;;;11.30;99.90;;;;;;5120285;27;20041;-77
2021/08/29 05:03:07;;;;;;;1.80;0.60;;;11.30;99.90;;;;;;5115574;27;20039;-77
2021/08/29 05:05:32;;;;;;;1.65;0.57;;;11.40;99.90;;;;;;5120864;27;20362;-77
2021/08/29 05:07:58;;;;;;;1.65;0.55;;;11.40;99.90;;;;;;5106811;27;20031;-77
2021/08/29 05:10:23;;;;;;;2.35;0.60;;;11.40;99.90;;;;;;5126539;27;20055;-76
2021/08/29 05:12:49;;;;;;;1.52;0.57;;;11.20;99.90;;;;;;5124662;28;20034;-78
2021/08/29 05:15:15;;;;;;;2.28;0.68;;;11.30;99.90;;;;;;5126689;27;20091;-77
2021/08/29 05:17:41;;;;;;;1.77;0.50;;;11.20;99.90;;;;;;5125472;28;20063;-77
2021/08/29 05:20:07;;;;;;;1.30;0.50;;;11.30;99.90;;;;;;5124815;28;20413;-76
2021/08/29 05:22:32;;;;;;;1.83;0.70;;;11.40;99.90;;;;;;5111345;28;20415;-76
2021/08/29 05:24:58;;;;;;;2.13;0.80;;;11.40;99.90;;;;;;5118570;28;20023;-76
2021/08/29 05:27:24;;;;;;;2.53;0.60;;;11.40;99.90;;;;;;5119280;28;20405;-76
2021/08/29 05:29:49;;;;;;;1.00;0.50;;;11.40;99.90;;;;;;5124347;28;20501;-77
2021/08/29 05:32:15;;;;;;;2.30;1.00;;;11.50;99.90;;;;;;5120208;28;20065;-77
2021/08/29 05:34:41;;;;;;;1.58;0.68;;;11.60;99.90;;;;;;5114676;28;20035;-77
2021/08/29 05:37:06;;;;;;;2.88;0.80;;;11.60;99.90;;;;;;5118013;28;20602;-77
2021/08/29 05:39:32;;;;;;;1.75;0.82;;;11.50;99.90;;;;;;5125638;28;20582;-77
2021/08/29 05:41:57;;;;;;;4.80;0.68;;;11.40;99.90;;;;;;5106878;28;20044;-76
2021/08/29 05:44:23;;;;;;;1.35;0.60;;;11.50;99.90;;;;;;5121246;28;20435;-76
2021/08/29 05:46:49;;;;;;;1.98;0.80;;;11.50;99.90;;;;;;5109836;28;20665;-76
2021/08/29 05:49:14;;;;;;;1.52;0.70;;;11.50;99.90;;;;;;5123796;28;20038;-77
2021/08/29 05:51:40;;;;;;;2.88;0.82;;;11.50;99.90;;;;;;5126545;28;20523;-76
2021/08/29 05:54:06;;;;;;;2.47;0.90;;;11.60;99.90;;;;;;5125099;28;20027;-76
2021/08/29 05:56:31;;;;;;;1.70;0.70;;;11.60;99.90;;;;;;5124917;28;20886;-76
2021/08/29 05:58:57;;;;;;;1.40;0.70;;;11.50;99.90;;;;;;5105594;28;20031;-77
2021/08/29 06:01:23;;;;;;;2.15;1.10;;;11.60;99.90;;;;;;5112824;28;20029;-76
2021/08/29 06:03:48;;;;;;;1.73;0.70;;;11.50;99.90;;;;;;5109193;28;20059;-76
2021/08/29 06:06:14;;;;;;;1.75;0.90;;;11.50;99.90;;;;;;5117084;28;20458;-77
2021/08/29 06:08:40;;;;;;;1.60;1.00;;;11.60;99.90;;;;;;5108061;28;20059;-79
2021/08/29 06:11:07;;;;;;;1.27;0.60;;;11.60;99.90;;;;;;5117059;28;20047;-82
2021/08/29 06:13:34;;;;;;;2.30;1.00;;;11.70;99.90;;;;;;5123005;28;20055;-78
2021/08/29 06:16:00;;;;;;;1.40;0.80;;;11.90;99.90;;;;;;5105652;28;20016;-78
2021/08/29 06:18:26;;;;;;;2.75;0.80;;;12.10;99.90;;;;;;5119708;28;20110;-77
2021/08/29 06:20:52;;;;;;;2.33;1.00;;;12.20;99.90;;;;;;5086631;28;20114;-77
2021/08/29 06:23:18;;;;;;;2.70;1.05;;;12.20;99.90;;;;;;5106620;27;20181;-77
2021/08/29 06:25:43;;;;;;;1.48;0.80;;;12.30;99.90;;;;;;5125649;27;20027;-77
2021/08/29 06:28:10;;;;;;;2.28;0.93;;;12.30;99.90;;;;;;5120989;27;20054;-77
2021/08/29 06:30:37;;;;;;;3.03;1.00;;;12.40;99.90;;;;;;5122253;27;20366;-77
2021/08/29 06:33:03;;;;;;;2.05;0.90;;;12.60;99.90;;;;;;5107721;27;20398;-78
2021/08/29 06:35:30;;;;;;;2.53;1.17;;;12.80;99.90;;;;;;5107463;28;20038;-77
2021/08/29 06:37:56;;;;;;;2.22;0.98;;;12.80;99.90;;;;;;5109453;27;20567;-77
2021/08/29 06:40:23;;;;;;;1.73;0.80;;;13.00;99.90;;;;;;5116826;27;20127;-77
2021/08/29 06:42:49;;;;;;;1.58;0.85;;;13.00;99.90;;;;;;5127060;27;20039;-77
2021/08/29 06:45:15;;;;;;;2.58;1.08;;;13.50;99.90;;;;;;5123970;27;20029;-77
2021/08/29 06:47:41;;;;;;;2.20;0.95;;;14.90;99.90;;;;;;5114828;27;20039;-79
2021/08/29 06:50:07;;;;;;;2.00;0.70;;;16.30;99.20;;;;;;5102095;27;20037;-80
2021/08/29 06:52:33;;;;;;;2.00;1.02;;;17.10;97.30;;;;;;5107741;27;20070;-79
2021/08/29 06:54:58;;;;;;;2.10;0.82;;;17.90;95.80;;;;;;5126517;27;20066;-79
2021/08/29 06:57:27;;;;;;;1.77;1.00;;;19.60;93.70;;;;;;5114325;27;20033;-78
2021/08/29 06:59:52;;;;;;;2.45;1.05;;;20.60;92.30;;;;;;5121130;27;20031;-79
2021/08/29 07:02:21;;;;;;;2.25;0.80;;;21.50;90.40;;;;;;5108640;27;20039;-79
2021/08/29 07:04:46;;;;;;;1.67;0.90;;;21.40;89.90;;;;;;5113918;27;20050;-79
2021/08/29 07:07:13;;;;;;;3.25;1.10;;;20.50;90.30;;;;;;5118330;27;20054;-79
2021/08/29 07:09:41;;;;;;;1.13;0.73;;;20.50;90.30;;;;;;5114970;27;20040;-78
2021/08/29 07:12:08;;;;;;;2.28;0.75;;;20.70;89.90;;;;;;5094731;27;20028;-79
2021/08/29 07:14:34;;;;;;;2.08;0.80;;;20.20;90.00;;;;;;5101314;27;20370;-76
2021/08/29 07:16:59;;;;;;;1.55;0.65;;;20.10;90.10;;;;;;5087374;27;20020;-77
2021/08/29 07:19:25;;;;;;;1.15;0.70;;;19.90;90.50;;;;;;5089872;27;20020;-79
2021/08/29 07:21:51;;;;;;;2.40;0.82;;;19.70;90.30;;;;;;5093377;28;20039;-80
2021/08/29 07:24:17;;;;;;;2.42;1.10;;;20.00;90.50;;;;;;5094370;28;20117;-80
2021/08/29 07:26:42;;;;;;;1.70;0.63;;;20.10;90.50;;;;;;5098839;28;20102;-81
2021/08/29 07:29:08;;;;;;;2.30;0.90;;;20.10;90.40;;;;;;5103952;27;20035;-80
2021/08/29 07:31:34;;;;;;;1.50;0.90;;;19.20;91.00;;;;;;5104508;27;20019;-81
2021/08/29 07:33:59;;;;;;;2.30;1.10;;;17.10;93.50;;;;;;5105438;28;20031;-80
2021/08/29 07:36:25;;;;;;;1.98;0.80;;;16.10;94.90;;;;;;5102523;28;20032;-81
2021/08/29 07:38:51;;;;;;;2.55;0.80;;;15.60;95.80;;;;;;5086171;28;20051;-80
2021/08/29 07:41:17;;;;;;;1.80;0.68;;;15.40;96.70;;;;;;5109660;27;20027;-80
2021/08/29 07:43:42;;;;;;;1.55;1.00;;;15.30;97.20;;;;;;5106913;28;20115;-80
2021/08/29 07:46:08;;;;;;;3.17;0.80;;;15.30;97.10;;;;;;5106654;28;20030;-80
2021/08/29 07:48:34;;;;;;;1.83;0.65;;;15.30;97.70;;;;;;5118361;27;20050;-80
2021/08/29 07:51:00;;;;;;;2.70;0.82;;;15.30;97.50;;;;;;5108663;27;20032;-80
2021/08/29 07:53:26;;;;;;;1.48;0.68;;;15.50;97.60;;;;;;5106843;27;20116;-80
2021/08/29 07:55:51;;;;;;;2.03;0.50;;;15.60;97.60;;;;;;5113097;27;20088;-80
2021/08/29 07:58:20;;;;;;;1.40;0.60;;;15.90;97.60;;;;;;5096995;28;20107;-80
2021/08/29 08:00:46;;;;;;;2.45;1.02;;;15.90;96.80;;;;;;5086589;28;20028;-79
2021/08/29 08:03:12;;;;;;;3.50;1.10;;;15.90;96.60;;;;;;5122804;27;20119;-80
2021/08/29 08:05:37;;;;;;;5.47;1.17;;;15.90;97.30;;;;;;5112735;27;20482;-80
2021/08/29 08:08:03;;;;;;;2.25;0.95;;;16.20;98.00;;;;;;5115268;27;20081;-80
2021/08/29 08:10:30;;;;;;;1.95;0.70;;;16.20;97.10;;;;;;5121411;27;20046;-80
2021/08/29 08:12:56;;;;;;;2.45;1.00;;;16.40;97.50;;;;;;5131791;27;20019;-79
2021/08/29 08:15:21;;;;;;;2.25;1.25;;;16.40;97.00;;;;;;5130748;27;20037;-80
2021/08/29 08:17:47;;;;;;;4.30;1.25;;;16.50;96.90;;;;;;5132884;27;20477;-80
2021/08/29 08:20:16;;;;;;;3.17;1.05;;;16.70;96.40;;;;;;5140098;27;20037;-80
2021/08/29 08:22:42;;;;;;;1.77;0.75;;;16.70;96.20;;;;;;5119791;27;20553;-80
2021/08/29 08:25:09;;;;;;;2.53;0.90;;;16.80;95.80;;;;;;5123858;27;20027;-79
2021/08/29 08:27:35;;;;;;;1.85;0.70;;;16.90;95.80;;;;;;5112016;27;20063;-80
2021/08/29 08:30:02;;;;;;;2.85;1.10;;;17.00;96.00;;;;;;5140141;27;20019;-80
2021/08/29 08:32:29;;;;;;;4.43;1.00;;;17.10;95.80;;;;;;5142926;27;20693;-80
2021/08/29 08:34:55;;;;;;;1.42;0.70;;;16.90;95.20;;;;;;5146731;27;20021;-80
2021/08/29 08:37:20;;;;;;;3.78;1.00;;;16.90;95.60;;;;;;5126078;27;20045;-80
2021/08/29 08:39:46;;;;;;;2.13;0.95;;;16.90;95.90;;;;;;5134007;27;20056;-80
2021/08/29 08:42:14;;;;;;;1.10;0.50;;;17.20;95.10;;;;;;5130389;27;20039;-79
2021/08/29 08:44:39;;;;;;;1.63;0.65;;;17.10;94.10;;;;;;5121037;27;20034;-78
2021/08/29 08:47:07;;;;;;;7.60;0.98;;;17.00;94.70;;;;;;5119474;27;20038;-78
2021/08/29 08:49:36;;;;;;;0.80;0.43;;;17.20;95.50;;;;;;5089112;27;20440;-78
2021/08/29 08:52:11;;;;;;;2.45;0.80;;;17.40;94.50;;;;;;5124239;27;20034;-78
2021/08/29 08:54:38;;;;;;;3.53;0.57;;;17.50;95.00;;;;;;5139602;27;20029;-78
2021/08/29 08:57:05;;;;;;;2.28;0.60;;;17.30;94.20;;;;;;5134309;27;20074;-78
2021/08/29 08:59:33;;;;;;;6.18;0.60;;;17.50;94.10;;;;;;5126023;27;20547;-78
2021/08/29 09:01:59;;;;;;;4.38;1.05;;;17.60;93.90;;;;;;5141777;27;20038;-78
2021/08/29 09:04:25;;;;;;;18.02;2.13;;;17.70;93.80;;;;;;5118960;27;20019;-78
2021/08/29 09:06:51;;;;;;;0.80;0.30;;;17.60;93.60;;;;;;5114382;27;20131;-78
2021/08/29 09:09:17;;;;;;;3.17;0.82;;;17.50;93.90;;;;;;5122254;27;20057;-78
2021/08/29 09:11:43;;;;;;;1.90;0.60;;;17.40;94.20;;;;;;5138424;27;20094;-77
2021/08/29 09:14:09;;;;;;;1.95;0.60;;;17.40;94.10;;;;;;5125974;27;20063;-77
2021/08/29 09:16:35;;;;;;;1.90;0.75;;;17.40;94.60;;;;;;5122995;28;20025;-77
2021/08/29 09:19:04;;;;;;;2.17;0.70;;;17.40;93.90;;;;;;5125220;27;20118;-78
2021/08/29 09:21:38;;;;;;;2.33;0.70;;;17.20;94.10;;;;;;5135705;27;20033;-78
2021/08/29 09:24:09;;;;;;;5.40;0.80;;;17.20;94.20;;;;;;5124768;27;20027;-78
2021/08/29 09:26:41;;;;;;;1.33;0.82;;;17.20;94.60;;;;;;5105800;28;20028;-77
2021/08/29 09:29:15;;;;;;;2.42;0.90;;;17.30;94.50;;;;;;5113768;27;20035;-78
2021/08/29 09:31:46;;;;;;;1.58;0.55;;;17.30;94.70;;;;;;5135323;27;20022;-78
2021/08/29 09:34:13;;;;;;;4.07;1.75;;;17.30;94.90;;;;;;5130856;27;20453;-78
2021/08/29 09:36:39;;;;;;;2.13;0.80;;;17.30;94.30;;;;;;5113443;28;20818;-77
2021/08/29 09:39:14;;;;;;;13.10;1.08;;;17.30;94.30;;;;;;5137292;27;20018;-78
2021/08/29 09:41:41;;;;;;;3.85;0.88;;;17.40;94.10;;;;;;5134200;27;20019;-77
2021/08/29 09:44:14;;;;;;;2.00;0.85;;;17.50;94.20;;;;;;5144609;27;20025;-77
2021/08/29 09:47:01;;;;;;;30.55;2.70;;;17.60;94.30;;;;;;5143469;27;20101;-78
2021/08/29 09:49:30;;;;;;;1.85;0.73;;;17.70;94.40;;;;;;5124522;27;20027;-78
2021/08/29 09:51:57;;;;;;;3.15;0.70;;;17.70;93.90;;;;;;5128972;27;20068;-78
2021/08/29 09:54:41;;;;;;;3.85;0.80;;;17.50;93.40;;;;;;5144865;27;20023;-78
2021/08/29 09:57:09;;;;;;;6.93;0.80;;;17.70;94.30;;;;;;5136620;27;20171;-78
2021/08/29 09:59:42;;;;;;;3.75;1.15;;;17.70;94.00;;;;;;5115821;27;20581;-79
2021/08/29 10:02:10;;;;;;;2.85;0.50;;;17.70;94.20;;;;;;5125220;27;20041;-77
2021/08/29 10:04:37;;;;;;;3.65;0.80;;;17.70;94.20;;;;;;5148978;27;20370;-78
2021/08/29 10:07:18;;;;;;;2.90;0.95;;;17.80;94.20;;;;;;5136514;27;20413;-78
2021/08/29 10:09:46;;;;;;;0.95;0.57;;;17.80;93.80;;;;;;5136363;27;20042;-78
2021/08/29 10:12:13;;;;;;;2.78;0.73;;;17.70;94.00;;;;;;5132288;27;20140;-79
2021/08/29 10:14:41;;;;;;;3.15;1.20;;;17.80;94.30;;;;;;5147903;27;20384;-78
2021/08/29 10:17:08;;;;;;;2.53;0.77;;;17.70;94.30;;;;;;5139340;27;20493;-78
2021/08/29 10:19:36;;;;;;;1.83;0.70;;;17.70;94.10;;;;;;5127859;27;20019;-78
2021/08/29 10:22:03;;;;;;;7.43;4.13;;;17.80;94.30;;;;;;5122103;27;20047;-78
2021/08/29 10:24:34;;;;;;;3.75;0.93;;;17.70;94.20;;;;;;5148152;27;20064;-78
2021/08/29 10:27:06;;;;;;;1.27;0.55;;;18.00;94.30;;;;;;5144026;27;20015;-78
2021/08/29 10:29:43;;;;;;;4.80;1.65;;;17.90;93.40;;;;;;5129014;27;20087;-78
2021/08/29 10:32:25;;;;;;;9.73;0.90;;;17.90;93.70;;;;;;5123433;27;20036;-79
2021/08/29 10:34:52;;;;;;;3.25;1.13;;;18.00;93.60;;;;;;5108376;27;20051;-78
2021/08/29 10:37:18;;;;;;;2.17;0.80;;;18.10;93.20;;;;;;5116217;27;20031;-78
2021/08/29 10:39:45;;;;;;;2.53;0.88;;;18.00;93.40;;;;;;5114554;27;20439;-78
2021/08/29 10:42:11;;;;;;;5.53;1.20;;;18.20;94.10;;;;;;5109630;27;20036;-78
2021/08/29 10:44:38;;;;;;;2.95;1.00;;;18.30;94.50;;;;;;5114452;27;20019;-78
2021/08/29 10:47:05;;;;;;;2.03;0.75;;;18.40;94.20;;;;;;5105459;28;20099;-78
2021/08/29 10:49:32;;;;;;;2.15;0.70;;;18.30;93.30;;;;;;5117710;27;20065;-78
2021/08/29 10:51:59;;;;;;;1.73;0.70;;;18.20;93.60;;;;;;5127284;27;20042;-78
2021/08/29 10:54:25;;;;;;;2.30;0.98;;;18.40;94.00;;;;;;5124281;27;20054;-78
2021/08/29 10:56:51;;;;;;;3.25;0.50;;;18.70;95.00;;;;;;5124937;27;20077;-78
2021/08/29 10:59:22;;;;;;;3.00;0.70;;;19.00;94.20;;;;;;5123685;27;20049;-78
2021/08/29 11:02:11;;;;;;;3.63;0.80;;;19.00;93.90;;;;;;5135638;27;20117;-78
2021/08/29 11:04:37;;;;;;;2.15;0.90;;;19.00;93.40;;;;;;5130737;27;20024;-78
2021/08/29 11:07:06;;;;;;;2.10;0.80;;;19.00;93.10;;;;;;5106459;28;20035;-78
2021/08/29 11:09:34;;;;;;;3.05;0.90;;;18.90;93.00;;;;;;5116997;27;20105;-77
2021/08/29 11:12:12;;;;;;;2.97;0.77;;;18.80;93.10;;;;;;5120628;27;20084;-79
2021/08/29 11:14:51;;;;;;;2.03;0.98;;;19.10;92.90;;;;;;5114949;27;20027;-79
2021/08/29 11:17:31;;;;;;;3.55;0.65;;;19.10;92.90;;;;;;5126204;27;20031;-78
2021/08/29 11:20:03;;;;;;;2.58;1.00;;;19.10;93.10;;;;;;5099875;27;20027;-78
2021/08/29 11:22:43;;;;;;;1.13;0.55;;;19.20;93.20;;;;;;5132184;27;20549;-77
2021/08/29 11:25:15;;;;;;;1.67;0.77;;;19.20;93.20;;;;;;5133246;27;20513;-79
2021/08/29 11:27:46;;;;;;;2.35;0.80;;;19.30;92.70;;;;;;5104435;28;20119;-78
2021/08/29 11:30:27;;;;;;;3.08;0.93;;;19.30;92.50;;;;;;5124206;27;20079;-79
2021/08/29 11:32:57;;;;;;;3.28;0.75;;;19.50;92.90;;;;;;5125988;27;20135;-78
2021/08/29 11:35:33;;;;;;;0.90;0.50;;;19.50;92.10;;;;;;5129755;27;20026;-78
2021/08/29 11:38:10;;;;;;;2.42;0.80;;;19.40;92.50;;;;;;5104512;27;20059;-78
2021/08/29 11:41:03;;;;;;;1.58;0.75;;;19.50;92.50;;;;;;5126589;27;20026;-78
2021/08/29 11:43:38;;;;;;;3.72;0.82;;;19.50;92.40;;;;;;5133874;27;20042;-79
2021/08/29 11:46:16;;;;;;;1.70;0.65;;;19.60;92.70;;;;;;5135637;27;20243;-78
2021/08/29 11:48:50;;;;;;;2.20;0.65;;;19.60;92.10;;;;;;5128051;27;20780;-78
2021/08/29 11:51:32;;;;;;;3.92;1.10;;;19.80;92.50;;;;;;5132154;27;20062;-78
2021/08/29 11:54:00;;;;;;;1.55;0.60;;;19.90;92.00;;;;;;5106243;28;20048;-78
2021/08/29 11:56:30;;;;;;;1.58;0.77;;;20.00;91.00;;;;;;5123975;27;20040;-78
2021/08/29 11:59:00;;;;;;;2.15;0.70;;;20.00;90.60;;;;;;5123647;27;20051;-79
2021/08/29 12:01:26;;;;;;;1.23;0.57;;;19.90;87.90;;;;;;5127404;27;20062;-78
2021/08/29 12:04:03;;;;;;;5.95;1.33;;;20.00;90.30;;;;;;5125367;27;20350;-78
2021/08/29 12:06:37;;;;;;;1.55;0.75;;;20.00;91.20;;;;;;5120979;27;20034;-78
2021/08/29 12:09:27;;;;;;;2.13;0.98;;;20.00;91.20;;;;;;5099100;27;20375;-78
2021/08/29 12:11:53;;;;;;;1.48;0.73;;;19.80;91.00;;;;;;5144554;27;20045;-78
2021/08/29 12:14:25;;;;;;;2.40;0.70;;;19.80;90.90;;;;;;5112085;27;20493;-78
2021/08/29 12:16:56;;;;;;;2.45;0.60;;;19.80;91.20;;;;;;5121107;27;20031;-78
2021/08/29 12:19:26;;;;;;;1.95;0.70;;;20.00;91.50;;;;;;5107545;27;20068;-79
2021/08/29 12:21:53;;;;;;;2.63;0.68;;;20.10;91.40;;;;;;5127708;27;20538;-78
2021/08/29 12:24:30;;;;;;;2.22;0.70;;;20.10;92.10;;;;;;5129086;27;20035;-78
2021/08/29 12:27:06;;;;;;;3.08;0.88;;;20.30;91.80;;;;;;5134583;27;20024;-78
2021/08/29 12:30:00;;;;;;;3.42;0.90;;;20.00;91.40;;;;;;5110483;27;20134;-79
2021/08/29 12:32:28;;;;;;;4.57;0.80;;;20.20;91.40;;;;;;5110439;27;20023;-78
2021/08/29 12:34:58;;;;;;;2.55;0.93;;;20.40;92.00;;;;;;5123350;27;20123;-78
2021/08/29 12:37:26;;;;;;;6.03;0.85;;;20.40;91.40;;;;;;5130621;27;20034;-78
2021/08/29 12:40:06;;;;;;;0.80;0.45;;;20.50;91.20;;;;;;5133355;27;20020;-78
2021/08/29 12:42:34;;;;;;;3.95;0.70;;;20.50;89.10;;;;;;5124735;27;20058;-78
2021/08/29 12:45:01;;;;;;;0.93;0.43;;;20.50;89.20;;;;;;5125291;27;20023;-78
2021/08/29 12:47:29;;;;;;;1.30;0.50;;;20.30;90.00;;;;;;5124179;27;20030;-79
2021/08/29 12:49:55;;;;;;;2.20;0.38;;;20.30;89.10;;;;;;5114047;27;20420;-78